Time;durP1;ratioP1;P1;durP2;ratioP2;P2;SDS_P1;SDS_P2;PMS_P1;PMS_P2;Temp;Humidity;BMP_temperature;BMP_pressure;BME280_temperature;BME280_humidity;BME280_pressure;Samples;Min_cycle;Max_cycle;Signal;HPM_P1;HPM_P2
2022/08/04 00:00:06;;;;;;;2.97;1.58;;;23.00;99.90;;;;;;4824025;29;20572;-37
2022/08/04 00:02:44;;;;;;;2.13;1.27;;;23.00;99.90;;;;;;4840151;29;20143;-35
2022/08/04 00:05:33;;;;;;;2.72;1.35;;;23.00;99.90;;;;;;4844294;29;20061;-39
2022/08/04 00:08:26;;;;;;;1.92;1.17;;;22.90;99.90;;;;;;4839949;29;20475;-38
2022/08/04 00:10:58;;;;;;;1.58;1.10;;;22.90;99.90;;;;;;4828687;29;20230;-39
2022/08/04 00:13:25;;;;;;;3.20;2.38;;;22.90;99.90;;;;;;4841260;29;20067;-42
2022/08/04 00:16:02;;;;;;;3.67;0.88;;;22.90;99.90;;;;;;4845682;29;20087;-40
2022/08/04 00:18:40;;;;;;;1.42;1.33;;;22.90;99.90;;;;;;4845632;29;20033;-40
2022/08/04 00:21:10;;;;;;;6.22;1.48;;;22.80;99.90;;;;;;4843584;29;20022;-35
2022/08/04 00:23:38;;;;;;;5.85;1.60;;;22.80;99.90;;;;;;4840457;29;20120;-35
2022/08/04 00:26:04;;;;;;;4.45;1.48;;;22.80;99.90;;;;;;4838261;29;20037;-40
2022/08/04 00:28:29;;;;;;;3.60;1.30;;;22.70;99.90;;;;;;4844412;29;20088;-32
2022/08/04 00:30:55;;;;;;;5.68;1.50;;;22.70;99.90;;;;;;4846951;29;20526;-31
2022/08/04 00:33:21;;;;;;;2.45;1.00;;;22.70;99.90;;;;;;4846617;29;20458;-36
2022/08/04 00:35:48;;;;;;;1.77;1.20;;;22.70;99.90;;;;;;4846035;29;20022;-36
2022/08/04 00:38:18;;;;;;;1.63;1.40;;;22.60;99.90;;;;;;4846721;29;20551;-37
2022/08/04 00:40:49;;;;;;;7.72;1.58;;;22.60;99.90;;;;;;4845350;29;20616;-38
2022/08/04 00:43:30;;;;;;;5.43;1.70;;;22.60;99.90;;;;;;4845744;29;20064;-37
2022/08/04 00:46:10;;;;;;;2.78;2.00;;;22.50;99.90;;;;;;4841753;29;20021;-37
2022/08/04 00:49:12;;;;;;;2.55;1.38;;;22.50;99.90;;;;;;4845500;29;20121;-37
2022/08/04 00:51:49;;;;;;;10.25;1.70;;;22.50;99.90;;;;;;4843171;29;20038;-35
2022/08/04 00:54:37;;;;;;;7.32;1.95;;;22.50;99.90;;;;;;4831175;29;20087;-35
2022/08/04 00:57:32;;;;;;;1.30;1.20;;;22.50;99.90;;;;;;4849250;29;20151;-39
2022/08/04 01:00:10;;;;;;;4.47;1.42;;;22.40;99.90;;;;;;4828111;29;20611;-48
2022/08/04 01:02:51;;;;;;;2.10;1.40;;;22.40;99.90;;;;;;4847272;29;20089;-37
2022/08/04 01:05:51;;;;;;;4.70;1.00;;;22.40;99.90;;;;;;4841375;29;20026;-38
2022/08/04 01:08:22;;;;;;;3.03;1.60;;;22.40;99.90;;;;;;4847474;29;20056;-33
2022/08/04 01:11:02;;;;;;;1.58;1.48;;;22.40;99.90;;;;;;4846322;29;20582;-38
2022/08/04 01:13:55;;;;;;;13.05;2.00;;;22.40;99.90;;;;;;4846583;29;20037;-39
2022/08/04 01:16:25;;;;;;;5.93;1.58;;;22.30;99.90;;;;;;4844291;29;20040;-41
2022/08/04 01:19:22;;;;;;;2.97;1.50;;;22.30;99.90;;;;;;4843136;29;20030;-42
2022/08/04 01:22:17;;;;;;;1.33;1.20;;;22.30;99.90;;;;;;4844718;29;20550;-36
2022/08/04 01:24:54;;;;;;;4.55;1.63;;;22.30;99.90;;;;;;4844289;29;20055;-37
2022/08/04 01:28:01;;;;;;;1.60;1.20;;;22.30;99.90;;;;;;4842492;29;20112;-37
2022/08/04 01:30:30;;;;;;;2.70;1.60;;;22.20;99.90;;;;;;4843770;29;20021;-38
2022/08/04 01:33:03;;;;;;;4.57;1.77;;;22.30;99.90;;;;;;4844139;29;20497;-37
2022/08/04 01:35:53;;;;;;;1.90;1.38;;;22.20;99.90;;;;;;4841285;29;20420;-38
2022/08/04 01:38:27;;;;;;;4.95;1.83;;;22.30;99.90;;;;;;4834348;29;20499;-39
2022/08/04 01:40:55;;;;;;;1.63;1.40;;;22.20;99.90;;;;;;4846131;29;20505;-37
2022/08/04 01:43:22;;;;;;;3.83;1.77;;;22.20;99.90;;;;;;4846402;29;20042;-38
2022/08/04 01:45:51;;;;;;;7.47;1.83;;;22.20;99.90;;;;;;4844007;29;20030;-38
2022/08/04 01:48:23;;;;;;;5.40;1.98;;;22.20;99.90;;;;;;4842317;29;20103;-37
2022/08/04 01:50:52;;;;;;;3.15;1.38;;;22.20;99.90;;;;;;4841151;29;20041;-38
2022/08/04 01:53:19;;;;;;;3.50;1.25;;;22.20;99.90;;;;;;4842777;29;20658;-37
2022/08/04 01:55:48;;;;;;;1.70;1.60;;;22.20;99.90;;;;;;4843112;29;20034;-37
2022/08/04 01:58:16;;;;;;;3.22;1.60;;;22.20;99.90;;;;;;4846839;29;20482;-37
2022/08/04 02:00:54;;;;;;;2.05;1.40;;;22.10;99.90;;;;;;4843186;29;20573;-36
2022/08/04 02:03:20;;;;;;;2.38;1.98;;;22.10;99.90;;;;;;4838568;29;20022;-38
2022/08/04 02:05:48;;;;;;;5.38;1.67;;;22.10;99.90;;;;;;4845083;29;20034;-46
2022/08/04 02:08:28;;;;;;;3.33;1.60;;;22.00;99.90;;;;;;4826494;29;20041;-39
2022/08/04 02:11:13;;;;;;;5.00;1.90;;;22.00;99.90;;;;;;4844374;29;20243;-37
2022/08/04 02:14:04;;;;;;;4.20;1.77;;;22.00;99.90;;;;;;4820307;29;20037;-37
2022/08/04 02:16:48;;;;;;;1.52;1.40;;;22.00;99.90;;;;;;4839637;29;20686;-34
2022/08/04 02:19:34;;;;;;;5.53;1.60;;;22.00;99.90;;;;;;4842609;29;20132;-37
2022/08/04 02:22:08;;;;;;;8.63;1.75;;;22.00;99.90;;;;;;4838730;29;20042;-38
2022/08/04 02:24:44;;;;;;;7.72;1.75;;;22.00;99.90;;;;;;4847007;29;20049;-34
2022/08/04 02:27:13;;;;;;;7.78;2.10;;;22.10;99.90;;;;;;4841458;29;20284;-33
2022/08/04 02:29:49;;;;;;;6.75;1.88;;;22.00;99.90;;;;;;4843652;29;20054;-38
2022/08/04 02:32:24;;;;;;;6.75;1.60;;;22.00;99.90;;;;;;4847086;29;20022;-38
2022/08/04 02:35:02;;;;;;;3.10;1.35;;;22.00;99.90;;;;;;4840580;29;20471;-38
2022/08/04 02:37:30;;;;;;;4.60;1.98;;;22.00;99.90;;;;;;4836319;29;20025;-37
2022/08/04 02:39:59;;;;;;;4.60;1.30;;;22.00;99.90;;;;;;4848329;29;20029;-37
2022/08/04 02:42:27;;;;;;;5.03;1.98;;;22.00;99.90;;;;;;4843372;29;20038;-37
2022/08/04 02:44:57;;;;;;;3.55;1.50;;;22.00;99.90;;;;;;4846010;29;20036;-37
2022/08/04 02:47:25;;;;;;;3.10;1.40;;;22.00;99.90;;;;;;4849516;29;20473;-40
2022/08/04 02:49:51;;;;;;;5.70;1.75;;;22.00;99.90;;;;;;4843553;29;20501;-33
2022/08/04 02:52:22;;;;;;;2.83;2.20;;;22.00;99.90;;;;;;4844987;29;20377;-34
2022/08/04 02:54:52;;;;;;;8.43;2.63;;;22.00;99.90;;;;;;4829831;29;20486;-36
2022/08/04 02:57:18;;;;;;;6.53;2.13;;;22.00;99.90;;;;;;4847756;29;20692;-38
2022/08/04 03:00:13;;;;;;;3.50;1.63;;;22.00;99.90;;;;;;4844659;29;20074;-35
2022/08/04 03:03:04;;;;;;;3.70;2.13;;;22.00;99.90;;;;;;4848857;29;20488;-34
2022/08/04 03:06:13;;;;;;;4.63;1.55;;;21.90;99.90;;;;;;4847904;29;20193;-31
2022/08/04 03:08:50;;;;;;;5.55;1.80;;;21.90;99.90;;;;;;4844557;29;20033;-35
2022/08/04 03:11:42;;;;;;;3.88;1.70;;;21.90;99.90;;;;;;4843420;29;20037;-31
2022/08/04 03:14:35;;;;;;;2.00;1.60;;;21.80;99.90;;;;;;4843475;29;20121;-39
2022/08/04 03:17:36;;;;;;;6.68;2.00;;;21.90;99.90;;;;;;4844545;29;20045;-37
2022/08/04 03:20:07;;;;;;;2.58;1.58;;;21.90;99.90;;;;;;4791359;29;20529;-38
2022/08/04 03:23:10;;;;;;;3.30;1.90;;;21.80;99.90;;;;;;4831300;29;20161;-37
2022/08/04 03:26:01;;;;;;;8.27;2.38;;;21.80;99.90;;;;;;4843899;29;20029;-35
2022/08/04 03:28:26;;;;;;;4.78;2.45;;;21.80;99.90;;;;;;4842047;29;20152;-37
2022/08/04 03:30:58;;;;;;;2.88;1.67;;;21.80;99.90;;;;;;4844197;29;20025;-44
2022/08/04 03:33:49;;;;;;;3.88;1.58;;;21.80;99.90;;;;;;4844006;29;20451;-39
2022/08/04 03:36:44;;;;;;;3.03;1.83;;;21.80;99.90;;;;;;4819118;29;20033;-37
2022/08/04 03:39:26;;;;;;;7.30;2.17;;;21.70;99.90;;;;;;4838467;29;20068;-37
2022/08/04 03:42:12;;;;;;;1.90;1.30;;;21.70;99.90;;;;;;4824265;29;20053;-37
2022/08/04 03:44:59;;;;;;;4.10;1.73;;;21.70;99.90;;;;;;4804975;29;20038;-38
2022/08/04 03:48:12;;;;;;;2.30;2.10;;;21.80;99.90;;;;;;4805571;29;20050;-36
2022/08/04 03:50:40;;;;;;;7.07;2.22;;;21.70;99.90;;;;;;4788432;29;20223;-36
2022/08/04 03:53:42;;;;;;;8.02;2.38;;;21.70;99.90;;;;;;4801753;29;20049;-37
2022/08/04 03:56:16;;;;;;;7.18;2.88;;;21.60;99.90;;;;;;4805316;29;20038;-37
2022/08/04 03:58:42;;;;;;;7.63;2.42;;;21.60;99.90;;;;;;4806475;29;20043;-36
2022/08/04 04:01:44;;;;;;;4.93;2.05;;;21.60;99.90;;;;;;4808266;29;20054;-39
2022/08/04 04:04:18;;;;;;;5.68;2.55;;;21.50;99.90;;;;;;4811395;29;20544;-38
2022/08/04 04:07:02;;;;;;;5.70;2.70;;;21.50;99.90;;;;;;4810195;29;20408;-40
2022/08/04 04:09:57;;;;;;;8.70;2.15;;;21.60;99.90;;;;;;4812313;29;20118;-30
2022/08/04 04:12:55;;;;;;;9.25;2.10;;;21.70;99.90;;;;;;4812331;29;21144;-34
2022/08/04 04:15:45;;;;;;;9.15;2.22;;;21.70;99.90;;;;;;4792882;29;20159;-37
2022/08/04 04:18:41;;;;;;;10.18;2.67;;;21.70;99.90;;;;;;4808782;29;20579;-34
2022/08/04 04:21:21;;;;;;;5.67;2.50;;;21.70;99.90;;;;;;4807658;29;20503;-38
2022/08/04 04:24:08;;;;;;;7.90;2.47;;;21.80;99.90;;;;;;4804325;29;20496;-38
2022/08/04 04:26:38;;;;;;;;;;;21.80;99.90;;;;;;4808401;29;20121;-34
2022/08/04 04:29:30;;;;;;;8.57;2.03;;;21.90;99.90;;;;;;4807139;29;19966;-40
2022/08/04 04:32:07;;;;;;;1.98;1.67;;;21.90;99.90;;;;;;4812764;29;20034;-37
2022/08/04 04:34:59;;;;;;;8.33;2.13;;;21.90;99.90;;;;;;4812369;29;20038;-33
2022/08/04 04:37:46;;;;;;;4.72;2.20;;;21.90;99.90;;;;;;4806813;29;20294;-36
2022/08/04 04:40:17;;;;;;;;;;;21.90;99.90;;;;;;4810318;29;20030;-39
2022/08/04 04:42:54;;;;;;;6.10;1.67;;;21.90;99.90;;;;;;4819392;29;20027;-37
2022/08/04 04:45:33;;;;;;;5.75;2.05;;;22.00;99.90;;;;;;4844371;29;20030;-39
2022/08/04 04:48:42;;;;;;;6.90;1.65;;;22.00;99.90;;;;;;4847532;29;20033;-39
2022/08/04 04:51:22;;;;;;;12.20;2.22;;;22.10;99.90;;;;;;4817796;29;20046;-39
2022/08/04 04:54:22;;;;;;;8.95;2.20;;;22.20;99.90;;;;;;4851161;29;20037;-33
2022/08/04 04:57:03;;;;;;;5.85;2.08;;;22.20;99.90;;;;;;4847805;29;20506;-36
2022/08/04 04:59:35;;;;;;;5.57;2.03;;;22.30;99.90;;;;;;4846420;29;20038;-42
2022/08/04 05:02:42;;;;;;;2.53;1.90;;;22.30;99.90;;;;;;4843039;29;20045;-31
2022/08/04 05:05:24;;;;;;;5.32;1.83;;;22.40;99.90;;;;;;4849137;29;20089;-35
2022/08/04 05:07:57;;;;;;;2.58;1.98;;;22.40;99.90;;;;;;4848691;29;20042;-35
2022/08/04 05:10:34;;;;;;;8.05;2.60;;;22.50;99.90;;;;;;4850174;29;20064;-35
2022/08/04 05:13:18;;;;;;;3.75;2.05;;;22.50;99.90;;;;;;4841892;29;20268;-39
2022/08/04 05:15:46;;;;;;;7.85;2.13;;;22.60;99.90;;;;;;4847455;29;20049;-35
2022/08/04 05:18:20;;;;;;;5.88;2.83;;;22.60;99.90;;;;;;4846814;29;20038;-34
2022/08/04 05:20:52;;;;;;;4.50;2.33;;;22.50;99.90;;;;;;4841521;29;20045;-38
2022/08/04 05:23:23;;;;;;;2.38;1.98;;;22.50;99.90;;;;;;4845676;29;20309;-38
2022/08/04 05:25:54;;;;;;;4.60;2.08;;;22.50;99.90;;;;;;4843110;29;20530;-40
2022/08/04 05:28:36;;;;;;;2.25;2.05;;;22.50;99.90;;;;;;4842265;29;20064;-36
2022/08/04 05:31:11;;;;;;;8.90;2.38;;;22.60;99.90;;;;;;4845029;29;20029;-41
2022/08/04 05:33:46;;;;;;;7.93;2.03;;;22.60;99.90;;;;;;4839443;29;20391;-36
2022/08/04 05:36:17;;;;;;;5.88;1.65;;;22.60;99.90;;;;;;4823794;29;20046;-39
2022/08/04 05:38:44;;;;;;;5.45;2.05;;;22.60;99.90;;;;;;4821588;29;20045;-37
2022/08/04 05:41:11;;;;;;;;;;;22.60;99.90;;;;;;4847322;29;20096;-37
2022/08/04 05:43:40;;;;;;;4.95;1.80;;;22.60;99.90;;;;;;4849482;29;19919;-37
2022/08/04 05:46:07;;;;;;;5.22;1.50;;;22.60;99.90;;;;;;4856880;29;20474;-35
2022/08/04 05:48:33;;;;;;;5.07;1.73;;;22.60;99.90;;;;;;4854528;29;20497;-32
2022/08/04 05:51:01;;;;;;;2.15;1.23;;;22.60;99.90;;;;;;4848659;29;20034;-38
2022/08/04 05:53:28;;;;;;;2.90;1.60;;;22.60;99.90;;;;;;4844198;29;20037;-38
2022/08/04 05:55:55;;;;;;;7.47;1.45;;;22.60;99.90;;;;;;4829376;29;20057;-49
2022/08/04 05:58:21;;;;;;;6.90;1.73;;;22.60;99.90;;;;;;4849555;29;20281;-36
2022/08/04 06:00:48;;;;;;;5.53;2.10;;;22.60;99.90;;;;;;4851235;29;20533;-46
2022/08/04 06:03:15;;;;;;;5.28;1.10;;;22.60;99.90;;;;;;4849688;29;20518;-37
2022/08/04 06:05:42;;;;;;;3.27;1.03;;;22.60;99.90;;;;;;4839987;29;20471;-37
2022/08/04 06:08:07;;;;;;;8.13;1.87;;;22.60;99.90;;;;;;4842313;29;20077;-34
2022/08/04 06:10:37;;;;;;;7.15;1.75;;;22.60;99.90;;;;;;4845763;29;20309;-38
2022/08/04 06:13:08;;;;;;;3.25;1.17;;;22.60;99.90;;;;;;4829195;29;20799;-36
2022/08/04 06:15:38;;;;;;;5.25;1.40;;;22.60;99.90;;;;;;4847275;29;20057;-34
2022/08/04 06:18:06;;;;;;;5.38;2.15;;;22.60;99.90;;;;;;4843555;29;20537;-36
2022/08/04 06:20:35;;;;;;;2.97;1.60;;;22.50;99.90;;;;;;4848809;29;20117;-38
2022/08/04 06:23:04;;;;;;;6.93;2.00;;;22.50;99.90;;;;;;4849837;29;20052;-37
2022/08/04 06:25:46;;;;;;;3.33;1.30;;;22.50;99.90;;;;;;4838743;29;20104;-36
2022/08/04 06:28:14;;;;;;;6.60;1.83;;;22.50;99.90;;;;;;4839207;29;20487;-37
2022/08/04 06:30:40;;;;;;;6.45;2.25;;;22.50;99.90;;;;;;4848445;29;20033;-38
2022/08/04 06:33:32;;;;;;;7.10;1.50;;;22.50;99.90;;;;;;4844988;29;20038;-39
2022/08/04 06:35:59;;;;;;;9.15;2.20;;;22.50;99.90;;;;;;4849254;29;20414;-38
2022/08/04 06:38:27;;;;;;;5.97;1.40;;;22.60;99.90;;;;;;4857490;29;20093;-38
2022/08/04 06:40:56;;;;;;;8.38;2.30;;;22.90;99.90;;;;;;4839522;29;20489;-34
2022/08/04 06:43:23;;;;;;;2.30;1.55;;;23.00;99.90;;;;;;4829660;29;20528;-31
2022/08/04 06:45:49;;;;;;;7.20;1.75;;;23.10;99.90;;;;;;4852554;29;20471;-32
2022/08/04 06:48:18;;;;;;;4.22;2.08;;;23.10;99.90;;;;;;4845531;29;20057;-33
2022/08/04 06:50:47;;;;;;;6.38;1.52;;;23.00;99.90;;;;;;4842188;29;20412;-39
2022/08/04 06:53:13;;;;;;;9.27;1.73;;;22.90;99.90;;;;;;4848133;29;20033;-37
2022/08/04 06:55:41;;;;;;;4.75;1.70;;;22.90;99.90;;;;;;4843013;29;20497;-38
2022/08/04 06:58:09;;;;;;;4.80;1.75;;;22.90;99.90;;;;;;4849212;29;20029;-42
2022/08/04 07:00:36;;;;;;;5.20;1.55;;;22.90;99.90;;;;;;4853181;29;20386;-37
2022/08/04 07:03:03;;;;;;;3.60;2.08;;;22.90;99.90;;;;;;4857554;29;20029;-36
2022/08/04 07:05:29;;;;;;;9.03;1.80;;;22.90;99.90;;;;;;4864424;29;20509;-33
2022/08/04 07:07:56;;;;;;;12.85;2.25;;;23.10;99.90;;;;;;4846275;29;20029;-49
2022/08/04 07:10:23;;;;;;;4.95;1.67;;;23.30;99.90;;;;;;4854236;29;20033;-38
2022/08/04 07:12:49;;;;;;;;;;;23.50;99.90;;;;;;4847313;29;20783;-38
2022/08/04 07:15:17;;;;;;;8.98;2.10;;;23.50;99.90;;;;;;4855520;29;19924;-39
2022/08/04 07:17:45;;;;;;;11.43;2.38;;;23.50;99.90;;;;;;4849982;29;20056;-39
2022/08/04 07:20:11;;;;;;;9.65;2.50;;;23.40;99.90;;;;;;4852974;29;20029;-40
2022/08/04 07:22:37;;;;;;;5.78;2.25;;;23.50;99.90;;;;;;4858879;29;20376;-39
2022/08/04 07:25:08;;;;;;;4.63;2.05;;;23.70;99.90;;;;;;4859368;29;20052;-38
2022/08/04 07:27:34;;;;;;;10.27;2.42;;;23.70;99.90;;;;;;4869358;29;20567;-44
2022/08/04 07:30:01;;;;;;;4.68;2.03;;;23.80;99.90;;;;;;4856249;29;20021;-38
2022/08/04 07:32:27;;;;;;;3.58;1.60;;;23.70;99.90;;;;;;4841967;29;20045;-39
2022/08/04 07:34:53;;;;;;;3.38;2.63;;;23.60;99.90;;;;;;4848864;29;20034;-38
2022/08/04 07:37:19;;;;;;;6.50;2.10;;;23.70;99.90;;;;;;4851715;29;20475;-38
2022/08/04 07:39:45;;;;;;;6.63;1.63;;;23.70;99.90;;;;;;4848591;29;20022;-38
2022/08/04 07:42:11;;;;;;;8.70;2.30;;;23.70;99.90;;;;;;4853217;29;20437;-38
2022/08/04 07:44:37;;;;;;;6.43;2.10;;;23.80;99.90;;;;;;4850146;29;20032;-43
2022/08/04 07:47:06;;;;;;;4.90;1.50;;;23.80;99.90;;;;;;4856766;29;20030;-40
2022/08/04 07:49:31;;;;;;;4.60;1.73;;;23.90;99.90;;;;;;4853440;29;20065;-38
2022/08/04 07:51:58;;;;;;;11.10;2.70;;;24.00;99.90;;;;;;4855651;29;20065;-36
2022/08/04 07:54:24;;;;;;;5.57;1.98;;;24.10;99.90;;;;;;4848614;29;20030;-41
2022/08/04 07:56:50;;;;;;;7.82;2.67;;;24.10;99.90;;;;;;4844175;29;20116;-38
2022/08/04 07:59:17;;;;;;;6.80;1.85;;;24.10;99.90;;;;;;4847922;29;20407;-36
2022/08/04 08:01:43;;;;;;;2.58;1.58;;;24.20;99.90;;;;;;4855064;29;20029;-38
2022/08/04 08:04:10;;;;;;;3.38;1.88;;;24.20;99.90;;;;;;4852207;29;20143;-40
2022/08/04 08:06:36;;;;;;;4.40;1.60;;;24.40;99.90;;;;;;4845244;29;20102;-38
2022/08/04 08:09:15;;;;;;;4.30;1.70;;;24.50;99.90;;;;;;4845564;29;20427;-38
2022/08/04 08:11:42;;;;;;;4.05;1.27;;;24.50;99.90;;;;;;4839249;29;20298;-38
2022/08/04 08:14:08;;;;;;;4.63;1.45;;;24.60;99.90;;;;;;4842403;29;20130;-38
2022/08/04 08:16:35;;;;;;;18.92;2.47;;;24.70;99.90;;;;;;4847727;29;20513;-37
2022/08/04 08:19:01;;;;;;;1.38;0.98;;;24.90;99.90;;;;;;4848868;29;20517;-38
2022/08/04 08:21:28;;;;;;;3.55;1.50;;;25.20;99.90;;;;;;4863879;29;20030;-34
2022/08/04 08:23:54;;;;;;;2.33;1.25;;;25.50;99.90;;;;;;4847053;29;20037;-38
2022/08/04 08:26:20;;;;;;;5.37;1.73;;;25.60;99.90;;;;;;4847827;29;20559;-38
2022/08/04 08:28:46;;;;;;;8.27;1.63;;;25.70;99.90;;;;;;4853232;29;20037;-39
2022/08/04 08:31:11;;;;;;;1.83;1.30;;;26.00;99.90;;;;;;4857694;29;20092;-47
2022/08/04 08:33:37;;;;;;;5.43;1.42;;;26.10;99.90;;;;;;4863244;29;20057;-35
2022/08/04 08:36:14;;;;;;;5.28;1.50;;;26.10;99.90;;;;;;4851830;29;20033;-36
2022/08/04 08:39:02;;;;;;;10.10;1.23;;;26.00;99.90;;;;;;4845336;29;20575;-41
2022/08/04 08:41:55;;;;;;;2.45;1.10;;;25.90;99.90;;;;;;4848621;29;20465;-40
2022/08/04 08:44:33;;;;;;;4.43;1.50;;;25.80;99.90;;;;;;4847851;29;20496;-39
2022/08/04 08:47:22;;;;;;;4.72;1.45;;;25.60;99.90;;;;;;4854995;29;20474;-37
2022/08/04 08:50:12;;;;;;;6.88;1.38;;;25.70;99.90;;;;;;4834748;29;20885;-36
2022/08/04 08:53:05;;;;;;;3.10;0.82;;;25.60;99.90;;;;;;4846546;29;20245;-37
2022/08/04 08:55:56;;;;;;;8.18;1.98;;;25.60;99.90;;;;;;4838867;29;20026;-41
2022/08/04 08:58:44;;;;;;;7.50;1.33;;;25.70;99.90;;;;;;4846110;29;20030;-39
2022/08/04 09:01:21;;;;;;;2.78;1.58;;;25.90;99.90;;;;;;4844432;29;20191;-38
2022/08/04 09:04:18;;;;;;;7.68;1.27;;;26.10;99.90;;;;;;4853276;29;20562;-37
2022/08/04 09:06:47;;;;;;;4.70;1.25;;;26.10;99.90;;;;;;4839764;29;20033;-43
2022/08/04 09:09:28;;;;;;;9.27;1.08;;;26.20;99.90;;;;;;4850539;29;20065;-38
2022/08/04 09:12:04;;;;;;;3.22;1.15;;;26.30;99.90;;;;;;4833731;29;20060;-39
2022/08/04 09:14:49;;;;;;;6.63;1.10;;;26.30;99.90;;;;;;4840435;29;20042;-37
2022/08/04 09:17:59;;;;;;;4.03;1.52;;;26.60;99.90;;;;;;4847757;29;20478;-38
2022/08/04 09:20:39;;;;;;;5.80;1.15;;;27.00;99.90;;;;;;4850551;29;20061;-34
2022/08/04 09:23:19;;;;;;;2.85;1.00;;;27.50;99.90;;;;;;4849317;29;20048;-38
2022/08/04 09:26:14;;;;;;;4.90;1.00;;;27.80;99.90;;;;;;4840125;29;20699;-37
2022/08/04 09:28:53;;;;;;;2.25;0.80;;;28.20;99.90;;;;;;4848438;29;20435;-39
2022/08/04 09:31:57;;;;;;;3.30;1.52;;;28.60;99.90;;;;;;4847974;29;20501;-38
2022/08/04 09:34:29;;;;;;;2.83;1.00;;;28.70;99.90;;;;;;4826657;29;20072;-38
2022/08/04 09:37:19;;;;;;;7.40;1.60;;;29.00;99.90;;;;;;4848263;29;20120;-35
2022/08/04 09:39:50;;;;;;;6.88;1.35;;;28.80;99.90;;;;;;4849301;29;20033;-41
2022/08/04 09:42:34;;;;;;;1.50;1.20;;;28.40;99.90;;;;;;4840897;29;20033;-37
2022/08/04 09:45:09;;;;;;;3.05;1.30;;;28.10;99.90;;;;;;4845213;29;20037;-39
2022/08/04 09:47:43;;;;;;;2.53;1.20;;;27.60;99.90;;;;;;4823050;29;20190;-37
2022/08/04 09:50:30;;;;;;;1.77;1.17;;;27.30;99.90;;;;;;4841715;29;20461;-32
2022/08/04 09:53:01;;;;;;;;;;;27.10;99.90;;;;;;4849483;29;20116;-37
2022/08/04 09:55:49;;;;;;;4.82;1.40;;;26.90;99.90;;;;;;4839443;29;20322;-38
2022/08/04 09:58:25;;;;;;;9.23;1.33;;;26.80;99.90;;;;;;4841285;29;20380;-35
2022/08/04 10:01:07;;;;;;;3.25;1.17;;;26.80;99.90;;;;;;4829635;29;20608;-39
2022/08/04 10:03:36;;;;;;;1.48;0.93;;;26.60;99.90;;;;;;4853784;29;20030;-40
2022/08/04 10:06:09;;;;;;;1.30;0.98;;;26.50;99.90;;;;;;4834980;29;20451;-43
2022/08/04 10:09:12;;;;;;;4.03;1.10;;;26.40;99.90;;;;;;4822912;29;20053;-36
2022/08/04 10:12:06;;;;;;;5.40;1.20;;;26.20;99.90;;;;;;4834269;29;20111;-37
2022/08/04 10:14:47;;;;;;;3.85;1.35;;;26.10;99.90;;;;;;4822847;29;20094;-40
2022/08/04 10:17:30;;;;;;;1.55;0.80;;;26.10;99.90;;;;;;4846073;29;20398;-34
2022/08/04 10:20:13;;;;;;;2.80;1.05;;;26.00;99.90;;;;;;4836199;29;20030;-42
2022/08/04 10:22:52;;;;;;;4.97;1.00;;;26.00;99.90;;;;;;4839634;29;20161;-37
2022/08/04 10:25:44;;;;;;;1.48;1.08;;;25.90;99.90;;;;;;4837200;29;20447;-37
2022/08/04 10:28:14;;;;;;;4.80;0.80;;;25.80;99.90;;;;;;4851511;29;20482;-37
2022/08/04 10:30:56;;;;;;;2.45;1.08;;;25.70;99.90;;;;;;4841556;29;20026;-34
2022/08/04 10:33:24;;;;;;;4.28;1.13;;;25.70;99.90;;;;;;4845481;29;20506;-34
2022/08/04 10:35:58;;;;;;;2.05;0.68;;;25.60;99.90;;;;;;4838067;29;20034;-37
2022/08/04 10:38:39;;;;;;;1.65;1.05;;;25.60;99.90;;;;;;4842916;29;20026;-38
2022/08/04 10:41:20;;;;;;;5.93;0.85;;;25.60;99.90;;;;;;4842414;29;20040;-32
2022/08/04 10:43:58;;;;;;;2.05;0.93;;;25.40;99.90;;;;;;4848238;29;20411;-36
2022/08/04 10:46:30;;;;;;;2.58;0.88;;;25.30;99.90;;;;;;4838635;29;20104;-35
2022/08/04 10:48:59;;;;;;;2.47;1.10;;;25.30;99.90;;;;;;4853624;29;20037;-38
2022/08/04 10:51:50;;;;;;;2.28;2.08;;;25.20;99.90;;;;;;4838946;29;20475;-38
2022/08/04 10:54:35;;;;;;;1.17;1.05;;;25.10;99.90;;;;;;4839123;29;20498;-35
2022/08/04 10:57:07;;;;;;;2.05;0.90;;;25.00;99.90;;;;;;4837970;29;20411;-37
2022/08/04 10:59:58;;;;;;;1.38;1.08;;;24.90;99.90;;;;;;4821671;29;20050;-42
2022/08/04 11:02:42;;;;;;;1.25;0.63;;;25.00;99.90;;;;;;4848800;29;20109;-34
2022/08/04 11:05:45;;;;;;;1.42;0.80;;;25.10;99.90;;;;;;4847801;29;20030;-37
2022/08/04 11:08:16;;;;;;;6.07;1.00;;;25.10;99.90;;;;;;4838369;29;20034;-33
2022/08/04 11:11:11;;;;;;;1.73;0.70;;;25.30;99.90;;;;;;4837093;29;20091;-37
2022/08/04 11:13:45;;;;;;;3.33;0.80;;;25.40;99.90;;;;;;4853412;29;20554;-39
2022/08/04 11:16:19;;;;;;;1.27;0.90;;;25.60;99.90;;;;;;4845549;29;20398;-35
2022/08/04 11:19:03;;;;;;;1.90;0.80;;;25.70;99.90;;;;;;4846323;29;20052;-36
2022/08/04 11:21:34;;;;;;;1.77;0.93;;;25.80;99.90;;;;;;4843831;29;20450;-39
2022/08/04 11:24:12;;;;;;;2.97;0.85;;;26.10;99.90;;;;;;4844016;29;20440;-37
2022/08/04 11:26:55;;;;;;;2.28;0.77;;;26.30;99.90;;;;;;4823032;29;20156;-35
2022/08/04 11:29:41;;;;;;;2.67;0.95;;;26.60;99.90;;;;;;4833372;29;20126;-37
2022/08/04 11:32:18;;;;;;;1.52;0.88;;;26.80;99.90;;;;;;4846972;29;20044;-38
2022/08/04 11:34:48;;;;;;;0.82;0.80;;;27.00;99.90;;;;;;4839566;29;20045;-39
2022/08/04 11:37:26;;;;;;;1.63;1.20;;;26.90;99.90;;;;;;4840395;29;20573;-38
2022/08/04 11:39:59;;;;;;;1.73;0.85;;;26.70;99.90;;;;;;4844857;29;20094;-39
2022/08/04 11:42:38;;;;;;;7.07;0.93;;;26.70;99.90;;;;;;4845581;29;20440;-38
2022/08/04 11:45:11;;;;;;;2.63;0.98;;;26.60;99.90;;;;;;4838604;29;20076;-38
2022/08/04 11:48:04;;;;;;;2.47;1.17;;;26.40;99.90;;;;;;4843063;29;20518;-40
2022/08/04 11:50:37;;;;;;;0.80;0.68;;;26.30;99.90;;;;;;4838686;29;20526;-36
2022/08/04 11:53:04;;;;;;;1.45;1.13;;;26.20;99.90;;;;;;4841767;29;20080;-38
2022/08/04 11:55:31;;;;;;;1.10;0.88;;;26.40;99.90;;;;;;4846348;29;20022;-40
2022/08/04 11:57:57;;;;;;;6.43;1.23;;;26.60;99.90;;;;;;4842915;29;20491;-37
2022/08/04 12:00:28;;;;;;;1.38;0.98;;;26.70;99.90;;;;;;4842321;29;20103;-40
2022/08/04 12:03:03;;;;;;;3.33;1.10;;;26.90;99.90;;;;;;4837581;29;20391;-39
2022/08/04 12:05:34;;;;;;;5.03;1.08;;;27.10;99.90;;;;;;4843888;29;20398;-40
2022/08/04 12:08:28;;;;;;;1.42;1.20;;;27.20;99.90;;;;;;4839373;29;20543;-38
2022/08/04 12:11:20;;;;;;;10.20;1.42;;;27.30;99.90;;;;;;4844568;29;20597;-37
2022/08/04 12:14:13;;;;;;;2.28;0.90;;;27.20;99.90;;;;;;4822460;29;20189;-53
2022/08/04 12:16:51;;;;;;;2.53;1.20;;;27.30;99.90;;;;;;4847973;29;20274;-37
2022/08/04 12:19:28;;;;;;;2.15;1.00;;;27.40;99.90;;;;;;4838484;29;20550;-38
2022/08/04 12:21:58;;;;;;;1.83;1.35;;;27.70;99.90;;;;;;4821154;29;20023;-38
2022/08/04 12:24:34;;;;;;;3.15;1.15;;;27.70;99.60;;;;;;4850817;29;20022;-37
2022/08/04 12:27:11;;;;;;;1.63;1.52;;;27.50;99.90;;;;;;4842370;29;20476;-36
2022/08/04 12:29:39;;;;;;;1.73;1.63;;;27.50;99.90;;;;;;4841270;29;20025;-38
2022/08/04 12:32:16;;;;;;;7.47;1.42;;;27.60;99.70;;;;;;4849795;29;20060;-39
2022/08/04 12:34:46;;;;;;;;;;;27.60;99.50;;;;;;4840421;29;20234;-39
2022/08/04 12:37:37;;;;;;;1.40;1.02;;;27.50;99.60;;;;;;4841307;29;19912;-39
2022/08/04 12:40:11;;;;;;;4.50;0.90;;;27.50;99.70;;;;;;4843241;29;20037;-39
2022/08/04 12:42:46;;;;;;;1.90;0.93;;;27.40;99.60;;;;;;4845897;29;20037;-46
2022/08/04 12:45:14;;;;;;;2.42;1.00;;;27.30;99.80;;;;;;4854968;29;20494;-40
2022/08/04 12:47:41;;;;;;;1.67;0.88;;;27.00;99.90;;;;;;4853648;29;20029;-32
2022/08/04 12:50:08;;;;;;;2.67;0.75;;;26.80;99.90;;;;;;4851408;29;20034;-39
2022/08/04 12:52:43;;;;;;;1.55;1.20;;;26.90;99.90;;;;;;4845060;29;20086;-39
2022/08/04 12:55:10;;;;;;;1.35;0.70;;;27.30;99.90;;;;;;4843306;29;20030;-39
2022/08/04 12:57:36;;;;;;;2.05;0.98;;;27.80;99.90;;;;;;4842147;29;20025;-40
2022/08/04 13:00:03;;;;;;;4.50;1.10;;;28.00;98.80;;;;;;4858625;29;20490;-46
2022/08/04 13:02:40;;;;;;;2.85;0.82;;;27.90;98.90;;;;;;4857886;29;20843;-41
2022/08/04 13:05:07;;;;;;;1.33;0.70;;;27.60;98.80;;;;;;4842394;29;20125;-36
2022/08/04 13:07:39;;;;;;;3.45;1.35;;;27.80;99.00;;;;;;4838719;29;20045;-38
2022/08/04 13:10:15;;;;;;;1.15;0.80;;;27.90;98.80;;;;;;4840743;29;20542;-33
2022/08/04 13:12:50;;;;;;;1.27;0.80;;;28.10;98.50;;;;;;4842565;29;20419;-38
2022/08/04 13:15:19;;;;;;;1.73;0.73;;;28.20;98.10;;;;;;4843075;29;20021;-34
2022/08/04 13:17:49;;;;;;;1.38;0.70;;;28.30;97.90;;;;;;4841035;29;20026;-36
2022/08/04 13:20:15;;;;;;;1.25;0.75;;;28.40;98.00;;;;;;4840328;29;20034;-38
2022/08/04 13:22:41;;;;;;;1.47;0.90;;;28.50;97.40;;;;;;4842607;29;20550;-33
2022/08/04 13:25:07;;;;;;;0.77;0.77;;;28.50;97.20;;;;;;4838786;29;20037;-38
2022/08/04 13:27:38;;;;;;;5.00;0.73;;;28.60;97.70;;;;;;4851655;29;20037;-38
2022/08/04 13:30:04;;;;;;;1.05;0.73;;;28.50;97.40;;;;;;4844549;29;20551;-37
2022/08/04 13:32:31;;;;;;;2.47;0.82;;;28.20;97.30;;;;;;4841768;29;20519;-38
2022/08/04 13:34:59;;;;;;;3.05;1.08;;;28.30;97.60;;;;;;4840053;29;20076;-35